Washington, DC (20040)

4:53 PM EDT on April 18, 2015 (GMT -0400)
Takoma, DC | | Change Station
CLOSE
Current Station
Personal Weather Station
Location: Washington, DC
Elevation: 279 ft
Nearby Weather Stations

Elev 279 ft 38.97 °N, 77.01 °W | Updated 7 seconds ago

Clear
Clear
82.2 °F
Feels Like 80 °F
N
0.0
Wind Variable Wind from North
Gusts 4.0 mph

Today
High -- | Low -- °F
--% Chance of Precip.
Yesterday
High -- | Low -- °F
Precip. -- in
6:27 AM 7:47 PM
New Moon, 0% visible
Pressure 29.95 in
Visibility 10.0 miles
Clouds Clear
Heat Index 80 °F
Dew Point 46 °F
Humidity 28%
Rainfall in
Snow Depth Not available.
UV 4 out of 12
Pollen 11.50 out of 12
Air Quality Not available.
Flu Activity Local Activity
METAR KCGS 182045Z AUTO 34004KT 10SM CLR 26/04 A2995 RMK AO1

More Conditions Fewer Conditions

Pressure 29.95 in
Visibility 10.0 miles
Clouds Clear
Heat Index 80 °F
Dew Point 46 °F
Humidity 28%
Rainfall in
Snow Depth Not available.
UV 4 out of 12
Pollen 11.50 out of 12
Air Quality Not available.
Flu Activity Local Activity
METAR KCGS 182045Z AUTO 34004KT 10SM CLR 26/04 A2995 RMK AO1

More Conditions Fewer Conditions

10-Day Weather Forecast

Almanac

Astronomy

Apr. 18, 2015 Rise Set
Actual Time
Civil Twilight
Nautical Twilight
Astronomical Twilight
Moon
Length of Visible Light
Length of Day
Tomorrow will be .
, % of the Moon is Illuminated

Today's Extremes

State Highs State Lows

Community

WunderPhotos

Upload Photos

1,814,525 photos uploaded!

WunderBlogs® & News

Nearby

Air Quality

  Air Quality AQ Index Pollutant
Not available.

Snow Depth

Station Depth Elevation

Earthquake Activity

City Distance Mag. Time & Date
Minimum magnitude displayed is 2.5.

Coastal Water Temperatures

Place Temperature

Stations

Nearby Weather Stations

Station Location Temp. Windchill Dew Point Humidity Wind Precip. Elev Updated Type